createdAt,value
2017-09-05T00:00:40.800Z,16.21
2017-09-05T00:03:08.367Z,16.10
2017-09-05T00:05:35.922Z,16.08
2017-09-05T00:08:03.540Z,16.19
2017-09-05T00:10:32.828Z,16.07
2017-09-05T00:13:03.105Z,15.27
2017-09-05T00:15:32.600Z,14.89
2017-09-05T00:18:03.130Z,15.52
2017-09-05T00:20:41.579Z,15.73
2017-09-05T00:23:09.525Z,15.64
2017-09-05T00:25:37.413Z,15.55
2017-09-05T00:28:04.940Z,15.77
2017-09-05T00:30:32.520Z,15.93
2017-09-05T00:33:00.084Z,15.80
2017-09-05T00:35:27.651Z,16.01
2017-09-05T00:37:55.237Z,15.96
2017-09-05T00:40:22.832Z,15.82
2017-09-05T00:42:50.593Z,15.66
2017-09-05T00:45:18.283Z,15.77
2017-09-05T00:47:46.025Z,15.71
2017-09-05T00:50:13.624Z,15.65
2017-09-05T00:52:41.224Z,15.78
2017-09-05T00:55:08.780Z,15.75
2017-09-05T00:57:36.363Z,15.68
2017-09-05T01:00:06.645Z,15.69
2017-09-05T01:02:34.449Z,15.76
2017-09-05T01:05:01.985Z,15.78
2017-09-05T01:07:29.637Z,15.72
2017-09-05T01:09:57.213Z,15.58
2017-09-05T01:12:27.084Z,15.58
2017-09-05T01:14:54.682Z,15.56
2017-09-05T01:17:22.476Z,15.55
2017-09-05T01:19:50.057Z,15.50
2017-09-05T01:22:17.699Z,15.46
2017-09-05T01:24:45.319Z,15.52
2017-09-05T01:27:13.672Z,15.45
2017-09-05T01:29:41.364Z,15.46
2017-09-05T01:32:08.979Z,15.51
2017-09-05T01:34:36.519Z,15.32
2017-09-05T01:37:04.104Z,15.50
2017-09-05T01:39:31.680Z,15.40
2017-09-05T01:41:59.262Z,15.55
2017-09-05T01:44:26.793Z,15.45
2017-09-05T01:46:55.691Z,15.24
2017-09-05T01:49:23.245Z,15.25
2017-09-05T01:51:50.753Z,15.18
2017-09-05T01:54:18.351Z,15.13
2017-09-05T01:56:45.900Z,15.16
2017-09-05T01:59:13.435Z,15.10
2017-09-05T02:01:41.028Z,15.18
2017-09-05T02:04:08.631Z,15.05
2017-09-05T02:06:36.161Z,15.11
2017-09-05T02:09:03.811Z,15.00
2017-09-05T02:11:31.406Z,14.93
2017-09-05T02:13:59.022Z,14.93
2017-09-05T02:16:26.585Z,14.93
2017-09-05T02:18:54.119Z,15.00
2017-09-05T02:21:21.897Z,14.97
2017-09-05T02:23:49.494Z,14.95
2017-09-05T02:26:17.109Z,15.00
2017-09-05T02:28:44.711Z,15.03
2017-09-05T02:31:12.298Z,15.07
2017-09-05T02:33:39.898Z,14.89
2017-09-05T02:36:07.442Z,14.88
2017-09-05T02:38:35.042Z,14.93
2017-09-05T02:41:02.556Z,14.98
2017-09-05T02:43:30.063Z,15.01
2017-09-05T02:45:57.665Z,14.97
2017-09-05T02:48:25.204Z,15.04
2017-09-05T02:50:52.773Z,14.84
2017-09-05T02:53:20.357Z,14.87
2017-09-05T02:55:47.942Z,14.94
2017-09-05T02:58:15.469Z,14.89
2017-09-05T03:00:43.180Z,14.92
2017-09-05T03:03:10.706Z,14.84
2017-09-05T03:05:38.267Z,14.85
2017-09-05T03:08:05.865Z,14.88
2017-09-05T03:10:33.454Z,14.73
2017-09-05T03:13:00.978Z,14.71
2017-09-05T03:15:28.655Z,14.77
2017-09-05T03:17:56.304Z,14.94
2017-09-05T03:20:23.865Z,15.00
2017-09-05T03:22:51.460Z,14.98
2017-09-05T03:25:19.080Z,14.89
2017-09-05T03:27:46.679Z,14.71
2017-09-05T03:30:14.378Z,14.88
2017-09-05T03:32:42.249Z,14.87
2017-09-05T03:35:09.836Z,14.81
2017-09-05T03:37:37.417Z,14.74
2017-09-05T03:40:04.972Z,14.72
2017-09-05T03:42:32.538Z,14.71
2017-09-05T03:45:00.115Z,14.78
2017-09-05T03:47:27.687Z,14.73
2017-09-05T03:49:55.247Z,14.79
2017-09-05T03:52:22.847Z,14.81
2017-09-05T03:54:50.381Z,14.79
2017-09-05T03:57:17.949Z,14.93
2017-09-05T03:59:45.539Z,14.90
2017-09-05T04:02:13.336Z,14.96
2017-09-05T04:04:40.873Z,14.80
2017-09-05T04:07:08.408Z,14.80
2017-09-05T04:09:35.973Z,14.69
2017-09-05T04:12:03.579Z,14.77
2017-09-05T04:14:31.151Z,14.87
2017-09-05T04:16:58.828Z,14.85
2017-09-05T04:19:26.383Z,14.79
2017-09-05T04:21:54.265Z,14.91
2017-09-05T04:24:21.830Z,14.85
2017-09-05T04:26:49.700Z,14.90
2017-09-05T04:29:17.464Z,15.03
2017-09-05T04:31:45.003Z,17.41
2017-09-05T04:34:12.557Z,18.17
2017-09-05T04:36:40.117Z,18.17
2017-09-05T04:39:07.685Z,18.12
2017-09-05T04:41:35.199Z,17.52
2017-09-05T04:44:02.723Z,18.26
2017-09-05T04:46:30.253Z,19.30
2017-09-05T04:48:57.790Z,18.79
2017-09-05T04:51:25.349Z,18.59
2017-09-05T04:53:52.924Z,19.43
2017-09-05T04:56:20.449Z,19.08
2017-09-05T04:58:47.979Z,17.84
2017-09-05T05:01:15.593Z,17.53
2017-09-05T05:03:43.101Z,17.89
2017-09-05T05:06:11.260Z,18.20
2017-09-05T05:08:38.873Z,17.92
2017-09-05T05:11:06.479Z,17.76
2017-09-05T05:13:34.011Z,17.90
2017-09-05T05:16:01.612Z,17.59
2017-09-05T05:18:29.125Z,17.64
2017-09-05T05:20:56.651Z,18.41
2017-09-05T05:23:24.213Z,18.03
2017-09-05T05:25:51.713Z,17.66
2017-09-05T05:28:19.238Z,17.51
2017-09-05T05:30:46.899Z,17.21
2017-09-05T05:33:14.527Z,17.28
2017-09-05T05:35:42.310Z,17.17
2017-09-05T05:38:09.869Z,17.34
2017-09-05T05:40:37.456Z,17.61
2017-09-05T05:43:05.052Z,17.85
2017-09-05T05:45:32.633Z,17.84
2017-09-05T05:48:00.147Z,17.75
2017-09-05T05:50:27.949Z,17.72
2017-09-05T05:52:55.509Z,17.46
2017-09-05T05:55:23.053Z,17.96
2017-09-05T05:57:50.632Z,18.95
2017-09-05T06:00:18.304Z,19.16
2017-09-05T06:02:46.056Z,19.57
2017-09-05T06:05:13.584Z,19.14
2017-09-05T06:07:41.120Z,19.03
2017-09-05T06:10:08.703Z,18.63
2017-09-05T06:12:36.229Z,18.46
2017-09-05T06:15:03.865Z,18.35
2017-09-05T06:17:31.395Z,18.26
2017-09-05T06:19:58.923Z,18.04
2017-09-05T06:22:26.522Z,17.98
2017-09-05T06:24:54.074Z,18.09
2017-09-05T06:27:21.640Z,18.17
2017-09-05T06:29:49.316Z,18.09
2017-09-05T06:32:16.877Z,18.29
2017-09-05T06:34:44.417Z,18.86
2017-09-05T06:37:12.008Z,19.44
2017-09-05T06:39:39.601Z,19.52
2017-09-05T06:42:07.183Z,19.50
2017-09-05T06:44:34.853Z,19.33
2017-09-05T06:47:02.428Z,19.18
2017-09-05T06:49:30.001Z,19.28
2017-09-05T06:51:57.536Z,19.72
2017-09-05T06:54:25.336Z,20.06
2017-09-05T06:56:52.905Z,20.46
2017-09-05T06:59:20.475Z,20.47
2017-09-05T07:01:48.091Z,20.71
2017-09-05T07:04:15.633Z,20.58
2017-09-05T07:06:43.165Z,20.78
2017-09-05T07:09:11.252Z,21.07
2017-09-05T07:11:38.827Z,21.00
2017-09-05T07:14:06.439Z,20.74
2017-09-05T07:16:34.021Z,20.61
2017-09-05T07:19:01.569Z,20.65
2017-09-05T07:21:29.112Z,20.44
2017-09-05T07:23:56.693Z,20.44
2017-09-05T07:26:24.616Z,20.50
2017-09-05T07:28:52.192Z,20.37
2017-09-05T07:31:19.762Z,20.53
2017-09-05T07:33:47.289Z,20.76
2017-09-05T07:36:14.869Z,20.48
2017-09-05T07:38:42.456Z,20.43
2017-09-05T07:41:10.010Z,20.47
2017-09-05T07:43:37.580Z,19.98
2017-09-05T07:46:05.165Z,19.93
2017-09-05T07:48:32.763Z,20.10
2017-09-05T07:51:00.603Z,20.04
2017-09-05T07:53:28.192Z,20.02
2017-09-05T07:55:55.721Z,20.27
2017-09-05T07:58:23.268Z,20.62
2017-09-05T08:00:50.853Z,21.07
2017-09-05T08:03:18.594Z,21.46
2017-09-05T08:05:46.185Z,21.65
2017-09-05T08:08:13.814Z,21.69
2017-09-05T08:10:41.345Z,21.99
2017-09-05T08:13:08.891Z,22.18
2017-09-05T08:15:36.470Z,22.54
2017-09-05T08:18:04.250Z,22.77
2017-09-05T08:20:31.814Z,23.42
2017-09-05T08:22:59.404Z,23.30
2017-09-05T08:25:26.993Z,23.22
2017-09-05T08:27:54.580Z,23.19
2017-09-05T08:30:22.253Z,23.20
2017-09-05T08:32:49.836Z,23.02
2017-09-05T08:35:17.427Z,22.93
2017-09-05T08:37:45.045Z,22.79
2017-09-05T08:40:12.575Z,22.77
2017-09-05T08:45:12.952Z,22.72
2017-09-05T08:47:40.484Z,22.74
2017-09-05T08:50:07.997Z,21.98
2017-09-05T08:52:35.590Z,21.74
2017-09-05T08:55:03.124Z,21.74
2017-09-05T08:57:30.682Z,21.79
2017-09-05T08:59:58.883Z,21.94
2017-09-05T09:02:26.467Z,21.97
2017-09-05T09:04:54.052Z,21.79
2017-09-05T09:07:21.641Z,21.69
2017-09-05T09:12:27.994Z,21.51
2017-09-05T09:14:55.557Z,21.28
2017-09-05T09:17:23.214Z,21.38
2017-09-05T09:19:50.804Z,21.49
2017-09-05T09:22:18.418Z,21.37
2017-09-05T09:24:46.013Z,21.23
2017-09-05T09:27:13.573Z,21.31
2017-09-05T09:29:41.118Z,21.45
2017-09-05T09:32:08.672Z,21.39
2017-09-05T09:34:36.221Z,21.17
2017-09-05T09:37:03.789Z,21.25
2017-09-05T09:39:31.363Z,21.10
2017-09-05T09:41:58.897Z,21.06
2017-09-05T09:44:26.413Z,21.02
2017-09-05T09:46:53.981Z,21.06
2017-09-05T09:49:21.616Z,20.95
2017-09-05T09:51:49.223Z,20.79
2017-09-05T09:54:16.784Z,20.64
2017-09-05T09:56:44.344Z,20.73
2017-09-05T09:59:11.929Z,20.70
2017-09-05T10:01:39.503Z,20.67
2017-09-05T10:04:07.277Z,20.49
2017-09-05T10:06:34.806Z,20.59
2017-09-05T10:09:02.413Z,20.43
2017-09-05T10:11:30.005Z,20.37
2017-09-05T10:13:57.579Z,20.15
2017-09-05T10:16:25.359Z,20.30
2017-09-05T10:18:52.951Z,20.37
2017-09-05T10:21:20.722Z,20.42
2017-09-05T10:23:48.299Z,20.36
2017-09-05T10:26:15.876Z,20.40
2017-09-05T10:28:43.422Z,20.49
2017-09-05T10:31:10.998Z,20.52
2017-09-05T10:33:38.537Z,20.51
2017-09-05T10:36:06.111Z,20.37
2017-09-05T10:38:33.666Z,20.39
2017-09-05T10:41:01.253Z,20.48
2017-09-05T10:43:29.544Z,20.38
2017-09-05T10:45:57.127Z,20.53
2017-09-05T10:48:24.721Z,20.51
2017-09-05T10:50:52.465Z,20.45
2017-09-05T10:53:20.814Z,20.74
2017-09-05T10:55:48.384Z,20.61
2017-09-05T10:58:15.939Z,20.87
2017-09-05T11:00:43.517Z,21.27
2017-09-05T11:03:11.407Z,21.33
2017-09-05T11:05:38.988Z,21.18
2017-09-05T11:08:06.559Z,21.03
2017-09-05T11:10:34.093Z,21.22
2017-09-05T11:13:01.645Z,21.27
2017-09-05T11:15:29.262Z,20.80
2017-09-05T11:17:56.848Z,20.99
2017-09-05T11:20:24.405Z,21.36
2017-09-05T11:22:51.997Z,21.11
2017-09-05T11:25:20.167Z,21.15
2017-09-05T11:27:47.948Z,21.49
2017-09-05T11:30:15.610Z,21.45
2017-09-05T11:32:43.206Z,21.57
2017-09-05T11:35:10.793Z,21.74
2017-09-05T11:37:38.596Z,21.52
2017-09-05T11:40:06.209Z,21.95
2017-09-05T11:42:33.843Z,21.41
2017-09-05T11:45:01.474Z,21.44
2017-09-05T11:47:29.252Z,21.55
2017-09-05T11:49:56.925Z,21.61
2017-09-05T11:52:24.553Z,21.38
2017-09-05T11:54:52.127Z,21.35
2017-09-05T11:57:19.990Z,21.70
2017-09-05T11:59:47.597Z,21.47
2017-09-05T12:02:15.189Z,21.77
2017-09-05T12:04:42.946Z,21.85
2017-09-05T12:07:10.508Z,21.96
2017-09-05T12:09:38.092Z,22.24
2017-09-05T12:12:05.836Z,22.17
2017-09-05T12:14:33.594Z,22.99
2017-09-05T12:17:01.203Z,23.25
2017-09-05T12:19:28.737Z,23.13
2017-09-05T12:21:56.280Z,23.14
2017-09-05T12:24:23.916Z,23.27
2017-09-05T12:26:51.449Z,23.54
2017-09-05T12:29:19.351Z,23.65
2017-09-05T12:31:46.968Z,23.09
2017-09-05T12:34:14.538Z,23.08
2017-09-05T12:36:42.115Z,23.09
2017-09-05T12:39:09.705Z,23.32
2017-09-05T12:41:37.284Z,23.67
2017-09-05T12:44:04.855Z,24.06
2017-09-05T12:46:32.485Z,24.31
2017-09-05T12:49:00.069Z,24.19
2017-09-05T12:51:27.622Z,24.05
2017-09-05T12:53:55.201Z,24.16
2017-09-05T12:56:22.743Z,24.16
2017-09-05T12:58:50.303Z,24.36
2017-09-05T13:01:18.055Z,24.41
2017-09-05T13:03:45.829Z,24.49
2017-09-05T13:06:13.372Z,24.67
2017-09-05T13:08:41.891Z,24.61
2017-09-05T13:11:09.461Z,24.97
2017-09-05T13:13:37.060Z,24.99
2017-09-05T13:16:04.671Z,25.10
2017-09-05T13:18:32.446Z,24.66
2017-09-05T13:21:00.050Z,24.48
2017-09-05T13:23:27.644Z,24.52
2017-09-05T13:25:55.432Z,24.73
2017-09-05T13:28:23.946Z,24.88
2017-09-05T13:30:53.017Z,24.98
2017-09-05T13:33:21.784Z,24.84
2017-09-05T13:35:50.036Z,24.70
2017-09-05T13:38:17.648Z,24.61
2017-09-05T13:40:45.324Z,24.72
2017-09-05T13:43:12.841Z,24.62
2017-09-05T13:45:40.405Z,24.65
2017-09-05T13:48:07.982Z,24.43
2017-09-05T13:50:35.576Z,24.26
2017-09-05T13:53:03.156Z,24.19
2017-09-05T13:55:30.685Z,23.93
2017-09-05T13:58:07.232Z,23.91
2017-09-05T14:00:35.628Z,23.85
2017-09-05T14:03:04.428Z,23.86
2017-09-05T14:05:32.308Z,23.79
2017-09-05T14:08:00.756Z,23.65
2017-09-05T14:10:28.347Z,23.63
2017-09-05T14:12:58.335Z,23.46
2017-09-05T14:15:25.939Z,23.40
2017-09-05T14:17:54.489Z,23.56
2017-09-05T14:20:23.126Z,23.68
2017-09-05T14:22:50.747Z,23.76
2017-09-05T14:25:18.281Z,23.58
2017-09-05T14:27:46.087Z,23.50
2017-09-05T14:30:13.733Z,23.44
2017-09-05T14:32:41.367Z,23.43
2017-09-05T14:35:08.927Z,23.60
2017-09-05T14:37:36.539Z,23.60
2017-09-05T14:40:04.309Z,23.45
2017-09-05T14:42:31.868Z,23.45
2017-09-05T14:44:59.471Z,23.42
2017-09-05T14:47:27.001Z,23.48
2017-09-05T14:49:54.517Z,23.55
2017-09-05T14:52:22.088Z,23.52
2017-09-05T14:54:49.616Z,23.30
2017-09-05T14:57:18.293Z,23.24
2017-09-05T14:59:45.864Z,23.27
2017-09-05T15:02:13.442Z,23.25
2017-09-05T15:04:41.069Z,23.13
2017-09-05T15:07:08.626Z,23.31
2017-09-05T15:09:36.209Z,23.72
2017-09-05T15:12:04.625Z,23.40
2017-09-05T15:14:32.201Z,23.73
2017-09-05T15:17:00.748Z,23.43
2017-09-05T15:19:28.359Z,23.28
2017-09-05T15:21:55.929Z,23.08
2017-09-05T15:24:23.637Z,22.92
2017-09-05T15:26:51.237Z,22.85
2017-09-05T15:29:18.787Z,22.58
2017-09-05T15:31:46.373Z,22.50
2017-09-05T15:34:13.950Z,22.16
2017-09-05T15:36:41.536Z,22.16
2017-09-05T15:39:09.209Z,22.31
2017-09-05T15:41:36.772Z,22.20
2017-09-05T15:44:04.312Z,22.30
2017-09-05T15:46:31.913Z,22.15
2017-09-05T15:48:59.488Z,22.13
2017-09-05T15:51:27.088Z,22.05
2017-09-05T15:53:55.565Z,21.98
2017-09-05T15:56:23.189Z,21.96
2017-09-05T15:58:50.952Z,22.01
2017-09-05T16:01:18.583Z,22.05
2017-09-05T16:03:46.168Z,22.07
2017-09-05T16:06:13.963Z,22.05
2017-09-05T16:08:42.519Z,22.04
2017-09-05T16:11:10.075Z,22.12
2017-09-05T16:13:37.648Z,22.13
2017-09-05T16:16:05.301Z,22.11
2017-09-05T16:18:32.884Z,22.15
2017-09-05T16:21:00.489Z,22.04
2017-09-05T16:23:28.095Z,22.06
2017-09-05T16:25:56.759Z,22.09
2017-09-05T16:28:24.315Z,22.06
2017-09-05T16:30:52.063Z,22.03
2017-09-05T16:33:19.619Z,22.02
2017-09-05T16:35:47.188Z,21.98
2017-09-05T16:38:14.772Z,21.91
2017-09-05T16:40:42.323Z,21.80
2017-09-05T16:43:09.888Z,21.71
2017-09-05T16:45:37.669Z,21.63
2017-09-05T16:48:05.951Z,21.62
2017-09-05T16:50:33.497Z,21.47
2017-09-05T16:53:01.173Z,21.60
2017-09-05T16:55:28.736Z,21.50
2017-09-05T16:57:56.305Z,21.48
2017-09-05T17:00:23.974Z,21.28
2017-09-05T17:02:51.497Z,21.32
2017-09-05T17:05:19.064Z,21.29
2017-09-05T17:07:46.652Z,21.22
2017-09-05T17:10:14.219Z,21.23
2017-09-05T17:12:41.776Z,21.19
2017-09-05T17:15:09.437Z,21.23
2017-09-05T17:17:37.041Z,21.12
2017-09-05T17:20:04.616Z,21.12
2017-09-05T17:22:33.137Z,20.98
2017-09-05T17:25:01.753Z,20.91
2017-09-05T17:27:29.319Z,20.87
2017-09-05T17:29:56.985Z,20.88
2017-09-05T17:32:25.931Z,20.83
2017-09-05T17:34:53.478Z,20.78
2017-09-05T17:37:21.068Z,20.75
2017-09-05T17:39:48.675Z,20.70
2017-09-05T17:42:17.188Z,20.72
2017-09-05T17:44:45.471Z,20.47
2017-09-05T17:47:13.050Z,20.60
2017-09-05T17:49:40.611Z,20.50
2017-09-05T17:52:08.214Z,20.40
2017-09-05T17:54:35.804Z,20.46
2017-09-05T17:57:03.614Z,20.46
2017-09-05T17:59:31.206Z,20.25
2017-09-05T18:01:59.137Z,20.26
2017-09-05T18:04:26.681Z,20.31
2017-09-05T18:06:54.217Z,20.22
2017-09-05T18:09:21.843Z,20.18
2017-09-05T18:11:49.414Z,20.24
2017-09-05T18:14:17.009Z,20.27
2017-09-05T18:16:44.788Z,20.28
2017-09-05T18:19:12.522Z,20.20
2017-09-05T18:21:40.107Z,20.20
2017-09-05T18:24:07.727Z,19.97
2017-09-05T18:26:35.862Z,20.06
2017-09-05T18:29:03.725Z,19.92
2017-09-05T18:31:31.807Z,19.98
2017-09-05T18:33:59.406Z,19.87
2017-09-05T18:36:27.952Z,19.84
2017-09-05T18:38:55.555Z,19.78
2017-09-05T18:41:23.245Z,19.77
2017-09-05T18:43:51.299Z,19.76
2017-09-05T18:46:19.867Z,19.66
2017-09-05T18:48:48.041Z,19.69
2017-09-05T18:51:16.072Z,19.59
2017-09-05T18:53:43.708Z,19.67
2017-09-05T18:56:11.448Z,19.63
2017-09-05T18:58:39.223Z,19.46
2017-09-05T19:01:08.078Z,19.39
2017-09-05T19:03:35.977Z,19.36
2017-09-05T19:06:03.506Z,19.36
2017-09-05T19:08:31.935Z,19.38
2017-09-05T19:10:59.606Z,19.43
2017-09-05T19:13:28.186Z,19.41
2017-09-05T19:15:55.795Z,19.41
2017-09-05T19:18:23.350Z,19.29
2017-09-05T19:20:51.142Z,19.58
2017-09-05T19:23:18.741Z,19.36
2017-09-05T19:25:46.608Z,19.29
2017-09-05T19:28:14.156Z,20.38
2017-09-05T19:30:41.756Z,19.88
2017-09-05T19:33:09.620Z,19.73
2017-09-05T19:35:37.208Z,19.49
2017-09-05T19:38:04.869Z,19.28
2017-09-05T19:40:32.429Z,19.19
2017-09-05T19:43:00.032Z,19.02
2017-09-05T19:45:27.643Z,19.05
2017-09-05T19:47:55.196Z,18.99
2017-09-05T19:50:22.759Z,19.00
2017-09-05T19:52:50.407Z,18.87
2017-09-05T19:55:18.704Z,18.83
2017-09-05T19:57:46.344Z,18.95
2017-09-05T20:00:13.948Z,18.91
2017-09-05T20:02:42.253Z,18.88
2017-09-05T20:05:09.918Z,18.90
2017-09-05T20:07:40.217Z,18.82
2017-09-05T20:10:07.985Z,18.74
2017-09-05T20:12:35.581Z,18.70
2017-09-05T20:15:03.164Z,18.63
2017-09-05T20:17:30.966Z,18.62
2017-09-05T20:19:58.647Z,18.78
2017-09-05T20:22:26.228Z,18.80
2017-09-05T20:24:53.973Z,18.77
2017-09-05T20:27:21.513Z,18.74
2017-09-05T20:29:49.114Z,18.69
2017-09-05T20:32:17.480Z,18.65
2017-09-05T20:34:45.256Z,18.62
2017-09-05T20:37:12.837Z,18.36
2017-09-05T20:39:40.431Z,18.13
2017-09-05T20:42:08.005Z,18.13
2017-09-05T20:44:35.741Z,18.09
2017-09-05T20:47:03.343Z,17.95
2017-09-05T20:49:30.873Z,18.12
2017-09-05T20:51:58.418Z,17.92
2017-09-05T20:54:26.011Z,17.75
2017-09-05T20:56:53.779Z,17.85
2017-09-05T20:59:21.661Z,17.63
2017-09-05T21:01:49.339Z,17.78
2017-09-05T21:04:17.837Z,17.55
2017-09-05T21:06:45.600Z,17.52
2017-09-05T21:09:13.163Z,17.60
2017-09-05T21:11:40.753Z,17.67
2017-09-05T21:14:22.266Z,17.52
2017-09-05T21:19:41.136Z,17.00
2017-09-05T21:22:19.034Z,17.28
2017-09-05T21:24:46.628Z,17.43
2017-09-05T21:27:17.328Z,17.22
2017-09-05T21:29:44.952Z,17.25
2017-09-05T21:32:17.316Z,17.21
2017-09-05T21:34:44.879Z,17.30
2017-09-05T21:37:12.704Z,17.24
2017-09-05T21:39:40.379Z,17.28
2017-09-05T21:42:07.987Z,17.26
2017-09-05T21:44:35.594Z,17.34
2017-09-05T21:47:03.169Z,17.28
2017-09-05T21:49:30.708Z,17.18
2017-09-05T21:51:58.577Z,17.28
2017-09-05T21:54:26.165Z,17.23
2017-09-05T21:56:53.711Z,17.11
2017-09-05T21:59:21.259Z,17.10
2017-09-05T22:01:48.812Z,17.18
2017-09-05T22:04:16.379Z,17.30
2017-09-05T22:06:43.912Z,17.40
2017-09-05T22:09:11.495Z,17.37
2017-09-05T22:11:39.037Z,17.44
2017-09-05T22:14:12.276Z,17.45
2017-09-05T22:16:41.602Z,17.53
2017-09-05T22:19:14.662Z,17.27
2017-09-05T22:21:42.288Z,17.25
2017-09-05T22:24:09.856Z,17.28
2017-09-05T22:26:43.051Z,17.21
2017-09-05T22:29:11.320Z,17.24
2017-09-05T22:31:38.909Z,17.36
2017-09-05T22:34:06.529Z,17.44
2017-09-05T22:36:34.092Z,17.31
2017-09-05T22:39:01.662Z,17.27
2017-09-05T22:41:29.312Z,17.23
2017-09-05T22:43:56.901Z,17.40
2017-09-05T22:46:24.533Z,17.26
2017-09-05T22:48:52.265Z,17.24
2017-09-05T22:51:19.845Z,17.02
2017-09-05T22:53:47.408Z,17.04
2017-09-05T22:56:14.940Z,17.05
2017-09-05T22:58:42.519Z,16.97
2017-09-05T23:01:10.127Z,16.86
2017-09-05T23:03:37.689Z,16.58
2017-09-05T23:06:05.259Z,16.60
2017-09-05T23:08:32.839Z,16.82
2017-09-05T23:11:00.455Z,16.56
2017-09-05T23:13:28.073Z,16.47
2017-09-05T23:15:55.645Z,16.71
2017-09-05T23:18:23.221Z,16.65
2017-09-05T23:20:50.957Z,16.51
2017-09-05T23:23:18.564Z,16.44
2017-09-05T23:25:46.820Z,16.44
2017-09-05T23:28:14.409Z,16.42
2017-09-05T23:30:41.992Z,16.43
2017-09-05T23:33:09.561Z,16.31
2017-09-05T23:35:37.398Z,16.44
2017-09-05T23:38:05.025Z,16.48
2017-09-05T23:40:32.529Z,16.40
2017-09-05T23:43:00.070Z,16.49
2017-09-05T23:45:27.655Z,16.54
2017-09-05T23:47:55.206Z,16.58
2017-09-05T23:50:22.820Z,16.50
2017-09-05T23:52:50.416Z,16.59
2017-09-05T23:55:18.170Z,16.56
2017-09-05T23:57:46.036Z,16.21
